createdAt,value
2022-08-12T00:02:09.299Z,58
2022-08-12T00:05:34.556Z,58
2022-08-12T00:08:59.816Z,59
2022-08-12T00:12:25.087Z,58
2022-08-12T00:15:50.317Z,58
2022-08-12T00:19:15.574Z,60
2022-08-12T00:22:40.965Z,60
2022-08-12T00:26:22.014Z,58
2022-08-12T00:29:31.346Z,59
2022-08-12T00:32:57.296Z,59
2022-08-12T00:36:34.661Z,59
2022-08-12T00:39:47.214Z,60
2022-08-12T00:43:12.366Z,58
2022-08-12T00:46:37.554Z,59
2022-08-12T00:50:02.771Z,59
2022-08-12T00:53:27.971Z,60
2022-08-12T00:56:53.194Z,60
2022-08-12T01:00:18.387Z,62
2022-08-12T01:03:43.604Z,62
2022-08-12T01:07:08.796Z,61
2022-08-12T01:10:34.006Z,62
2022-08-12T01:13:59.250Z,62
2022-08-12T01:17:24.451Z,63
2022-08-12T01:20:49.640Z,63
2022-08-12T01:24:23.136Z,63
2022-08-12T01:27:40.080Z,62
2022-08-12T01:31:05.293Z,63
2022-08-12T01:34:36.735Z,63
2022-08-12T01:37:55.705Z,62
2022-08-12T01:41:20.946Z,63
2022-08-12T01:44:46.137Z,63
2022-08-12T01:48:11.322Z,63
2022-08-12T01:52:16.175Z,64
2022-08-12T01:55:01.748Z,63
2022-08-12T01:58:26.959Z,63
2022-08-12T02:01:52.243Z,64
2022-08-12T02:05:17.364Z,63
2022-08-12T02:08:42.630Z,65
2022-08-12T02:12:08.469Z,63
2022-08-12T02:15:33.032Z,63
2022-08-12T02:18:58.817Z,64
2022-08-12T02:22:24.037Z,64
2022-08-12T02:25:49.287Z,64
2022-08-12T02:29:14.480Z,64
2022-08-12T02:32:39.754Z,65
2022-08-12T02:36:04.873Z,64
2022-08-12T02:39:30.205Z,64
2022-08-12T02:42:55.333Z,64
2022-08-12T02:46:20.560Z,64
2022-08-12T02:49:45.738Z,65
2022-08-12T02:53:10.937Z,64
2022-08-12T02:56:36.153Z,65
2022-08-12T03:00:01.377Z,65
2022-08-12T03:03:26.581Z,64
2022-08-12T03:06:51.748Z,65
2022-08-12T03:10:17.999Z,64
2022-08-12T03:13:42.203Z,64
2022-08-12T03:17:07.404Z,64
2022-08-12T03:20:32.611Z,66
2022-08-12T03:23:57.810Z,65
2022-08-12T03:27:23.088Z,67
2022-08-12T03:30:48.317Z,71
2022-08-12T03:34:13.497Z,68
2022-08-12T03:37:38.777Z,71
2022-08-12T03:41:04.040Z,75
2022-08-12T03:44:29.333Z,70
2022-08-12T03:47:54.567Z,75
2022-08-12T03:51:20.842Z,71
2022-08-12T03:54:45.087Z,76
2022-08-12T03:58:10.342Z,74
2022-08-12T04:01:40.628Z,76
2022-08-12T04:05:00.856Z,77
2022-08-12T04:08:26.089Z,77
2022-08-12T04:11:51.314Z,77
2022-08-12T04:15:16.543Z,76
2022-08-12T04:18:41.770Z,76
2022-08-12T04:22:06.962Z,77
2022-08-12T04:25:32.163Z,74
2022-08-12T04:28:57.374Z,76
2022-08-12T04:32:22.596Z,78
2022-08-12T04:35:47.800Z,79
2022-08-12T04:39:13.053Z,77
2022-08-12T04:42:38.216Z,75
2022-08-12T04:46:03.452Z,73
2022-08-12T04:49:28.666Z,74
2022-08-12T04:52:53.845Z,76
2022-08-12T04:56:19.064Z,75
2022-08-12T04:59:47.433Z,72
2022-08-12T05:03:09.486Z,75
2022-08-12T05:06:34.690Z,75
2022-08-12T05:10:02.120Z,75
2022-08-12T05:13:25.195Z,75
2022-08-12T05:16:50.462Z,73
2022-08-12T05:20:15.699Z,73
2022-08-12T05:23:40.909Z,71
2022-08-12T05:27:06.192Z,73
2022-08-12T05:30:31.411Z,73
2022-08-12T05:33:56.602Z,74
2022-08-12T05:37:21.853Z,70
2022-08-12T05:40:47.127Z,70
2022-08-12T05:44:12.325Z,66
2022-08-12T05:47:53.212Z,64
2022-08-12T05:51:02.733Z,64
2022-08-12T05:54:47.540Z,61
2022-08-12T05:57:53.183Z,60
2022-08-12T06:02:11.126Z,58
2022-08-12T06:04:43.618Z,64
2022-08-12T06:08:08.874Z,59
2022-08-12T06:11:34.170Z,56
2022-08-12T06:14:59.402Z,55
2022-08-12T06:18:29.279Z,54
2022-08-12T06:21:49.836Z,54
2022-08-12T06:25:17.645Z,52
2022-08-12T06:28:40.334Z,51
2022-08-12T06:32:05.537Z,51
2022-08-12T06:35:49.028Z,51
2022-08-12T06:38:55.963Z,51
2022-08-12T06:42:32.707Z,50
2022-08-12T06:45:47.072Z,51
2022-08-12T06:49:11.590Z,51
2022-08-12T06:52:36.789Z,50
2022-08-12T06:56:02.002Z,51
2022-08-12T06:59:27.214Z,51
2022-08-12T07:02:52.467Z,51
2022-08-12T07:06:17.715Z,51
2022-08-12T07:09:56.107Z,51
2022-08-12T07:13:08.799Z,51
2022-08-12T07:16:34.005Z,51
2022-08-12T07:20:03.607Z,51
2022-08-12T07:23:24.523Z,51
2022-08-12T07:26:49.719Z,51
2022-08-12T07:30:14.959Z,51
2022-08-12T07:33:40.212Z,51
2022-08-12T07:37:05.427Z,51
2022-08-12T07:40:30.689Z,51
2022-08-12T07:43:55.951Z,51
2022-08-12T07:47:21.248Z,51
2022-08-12T07:50:46.438Z,52
2022-08-12T07:54:11.682Z,51
2022-08-12T07:57:36.986Z,50
2022-08-12T08:01:02.253Z,50
2022-08-12T08:04:27.526Z,49
2022-08-12T08:07:52.800Z,49
2022-08-12T08:11:18.042Z,50
2022-08-12T08:14:43.312Z,50
2022-08-12T08:18:08.565Z,49
2022-08-12T08:21:33.802Z,49
2022-08-12T08:24:59.041Z,49
2022-08-12T08:28:24.305Z,49
2022-08-12T08:31:49.564Z,49
2022-08-12T08:35:14.813Z,49
2022-08-12T08:38:39.998Z,48
2022-08-12T08:42:13.647Z,48
2022-08-12T08:45:30.418Z,48
2022-08-12T08:48:59.425Z,47
2022-08-12T08:52:37.156Z,48
2022-08-12T08:56:03.940Z,48
2022-08-12T08:59:11.300Z,47
2022-08-12T09:02:36.557Z,47
2022-08-12T09:06:03.055Z,47
2022-08-12T09:09:28.435Z,47
2022-08-12T09:12:54.507Z,47
2022-08-12T09:16:19.311Z,47
2022-08-12T09:19:42.533Z,46
2022-08-12T09:23:58.099Z,46
2022-08-12T09:26:33.906Z,45
2022-08-12T09:30:09.585Z,45
2022-08-12T09:34:24.923Z,44
2022-08-12T09:36:57.604Z,44
2022-08-12T09:40:55.638Z,44
2022-08-12T09:43:46.955Z,41
2022-08-12T09:47:04.298Z,42
2022-08-12T09:50:29.556Z,41
2022-08-12T09:54:05.432Z,42
2022-08-12T09:58:08.512Z,43
2022-08-12T10:00:51.916Z,41
2022-08-12T10:04:11.881Z,43
2022-08-12T10:07:40.174Z,43
2022-08-12T10:11:01.049Z,42
2022-08-12T10:14:34.161Z,43
2022-08-12T10:17:57.213Z,42
2022-08-12T10:21:18.399Z,41
2022-08-12T10:24:43.669Z,42
2022-08-12T10:28:16.284Z,42
2022-08-12T10:31:43.580Z,42
2022-08-12T10:34:59.450Z,41
2022-08-12T10:38:32.777Z,40
2022-08-12T10:41:56.653Z,39
2022-08-12T10:45:17.285Z,39
2022-08-12T10:48:40.456Z,39
2022-08-12T10:52:33.563Z,39
2022-08-12T10:55:30.921Z,38
2022-08-12T10:58:56.173Z,38
2022-08-12T11:04:21.978Z,37
2022-08-12T11:07:03.848Z,37
2022-08-12T11:09:11.976Z,37
2022-08-12T11:12:56.807Z,37
2022-08-12T11:16:19.261Z,37
2022-08-12T11:19:27.669Z,38
2022-08-12T11:22:57.651Z,38
2022-08-12T11:26:18.316Z,38
2022-08-12T11:30:00.711Z,38
2022-08-12T11:33:09.321Z,38
2022-08-12T11:36:36.280Z,39
2022-08-12T11:43:24.497Z,37
2022-08-12T11:46:51.094Z,37
2022-08-12T11:50:19.373Z,38
2022-08-12T11:53:58.710Z,37
2022-08-12T11:57:22.836Z,38
2022-08-12T12:03:56.081Z,37
2022-08-12T12:07:21.452Z,38
2022-08-12T12:10:46.735Z,37
2022-08-12T12:14:12.679Z,38
2022-08-12T12:17:38.284Z,38
2022-08-12T12:21:03.882Z,38
2022-08-12T12:24:28.680Z,38
2022-08-12T12:28:05.274Z,38
2022-08-12T12:32:09.454Z,37
2022-08-12T12:35:13.348Z,38
2022-08-12T12:38:11.914Z,38
2022-08-12T12:41:37.148Z,40
2022-08-12T12:45:00.118Z,38
2022-08-12T12:48:25.376Z,37
2022-08-12T12:52:17.970Z,37
2022-08-12T12:55:16.316Z,38
2022-08-12T12:58:43.420Z,38
2022-08-12T13:02:07.890Z,37
2022-08-12T13:05:42.014Z,37
2022-08-12T13:08:57.351Z,37
2022-08-12T13:12:22.599Z,37
2022-08-12T13:15:47.935Z,38
2022-08-12T13:19:13.087Z,37
2022-08-12T13:22:38.333Z,37
2022-08-12T13:26:03.576Z,38
2022-08-12T13:29:28.824Z,38
2022-08-12T13:32:57.262Z,39
2022-08-12T13:36:19.335Z,39
2022-08-12T13:39:44.602Z,39
2022-08-12T13:43:13.334Z,40
2022-08-12T13:46:35.125Z,40
2022-08-12T13:50:00.383Z,40
2022-08-12T13:53:40.079Z,39
2022-08-12T13:56:51.536Z,39
2022-08-12T14:00:16.707Z,38
2022-08-12T14:03:50.774Z,39
2022-08-12T14:07:06.739Z,40
2022-08-12T14:10:31.983Z,39
2022-08-12T14:14:02.887Z,40
2022-08-12T14:17:22.652Z,40
2022-08-12T14:20:47.891Z,39
2022-08-12T14:24:13.076Z,40
2022-08-12T14:28:03.111Z,40
2022-08-12T15:04:17.774Z,40
2022-08-12T15:07:47.970Z,40
2022-08-12T15:11:09.314Z,40
2022-08-12T15:14:35.265Z,41
2022-08-12T15:17:59.209Z,41
2022-08-12T15:21:24.158Z,41
2022-08-12T15:24:49.440Z,42
2022-08-12T15:28:20.585Z,42
2022-08-12T15:31:58.067Z,43
2022-08-12T15:35:07.894Z,43
2022-08-12T15:38:30.881Z,42
2022-08-12T15:41:56.147Z,42
2022-08-12T15:45:23.678Z,42
2022-08-12T15:48:47.548Z,41
2022-08-12T15:52:19.146Z,42
2022-08-12T15:55:37.212Z,42
2022-08-12T15:59:02.449Z,42
2022-08-12T16:02:29.653Z,41
2022-08-12T16:06:10.629Z,42
2022-08-12T16:09:21.454Z,42
2022-08-12T16:12:54.338Z,42
2022-08-12T16:16:12.346Z,42
2022-08-12T16:20:02.033Z,42
2022-08-12T16:22:59.335Z,42
2022-08-12T16:26:27.277Z,43
2022-08-12T16:29:53.569Z,42
2022-08-12T16:33:15.217Z,43
2022-08-12T16:36:40.642Z,43
2022-08-12T16:40:06.258Z,43
2022-08-12T16:43:31.274Z,43
2022-08-12T16:46:57.784Z,43
2022-08-12T16:50:21.834Z,43
2022-08-12T16:53:47.086Z,44
2022-08-12T16:57:15.361Z,43
2022-08-12T17:00:40.631Z,44
2022-08-12T17:04:08.477Z,43
2022-08-12T17:07:31.174Z,43
2022-08-12T17:10:56.639Z,44
2022-08-12T17:14:23.695Z,44
2022-08-12T17:17:47.325Z,44
2022-08-12T17:21:12.723Z,44
2022-08-12T17:24:38.208Z,44
2022-08-12T17:28:03.511Z,44
2022-08-12T17:31:53.171Z,44
2022-08-12T17:34:54.130Z,44
2022-08-12T17:38:19.415Z,44
2022-08-12T17:41:56.081Z,45
2022-08-12T17:45:15.552Z,45
2022-08-12T17:48:38.588Z,45
2022-08-12T17:52:02.156Z,45
2022-08-12T17:55:40.063Z,45
2022-08-12T17:58:57.997Z,45
2022-08-12T18:02:19.397Z,46
2022-08-12T18:05:55.954Z,46
2022-08-12T18:09:09.802Z,46
2022-08-12T18:12:35.021Z,46
2022-08-12T18:16:03.721Z,46
2022-08-12T18:19:25.576Z,47
2022-08-12T18:22:50.852Z,47
2022-08-12T18:26:17.575Z,49
2022-08-12T18:29:42.479Z,49
2022-08-12T18:33:07.097Z,53
2022-08-12T18:36:32.061Z,53
2022-08-12T18:39:57.331Z,52
2022-08-12T18:43:22.598Z,50
2022-08-12T18:46:48.802Z,57
2022-08-12T18:50:13.111Z,57
2022-08-12T18:54:05.919Z,53
2022-08-12T18:57:03.718Z,55
2022-08-12T19:00:28.896Z,57
2022-08-12T19:03:54.199Z,56
2022-08-12T19:07:19.464Z,53
2022-08-12T19:10:48.045Z,54
2022-08-12T19:14:10.007Z,52
2022-08-12T19:17:47.824Z,58
2022-08-12T19:21:06.208Z,54
2022-08-12T19:24:25.887Z,52
2022-08-12T19:27:51.191Z,56
2022-08-12T19:31:17.402Z,54
2022-08-12T19:38:07.305Z,54
2022-08-12T19:41:34.650Z,55
2022-08-12T19:44:57.738Z,55
2022-08-12T19:48:23.013Z,54
2022-08-12T19:51:48.271Z,55
2022-08-12T19:55:19.392Z,57
2022-08-12T19:58:38.879Z,55
2022-08-12T20:02:04.876Z,58
2022-08-12T20:06:04.094Z,56
2022-08-12T20:08:56.265Z,57
2022-08-12T20:12:26.840Z,60
2022-08-12T20:15:45.534Z,56
2022-08-12T20:19:10.724Z,57
2022-08-12T20:22:36.027Z,58
2022-08-12T20:26:04.123Z,58
2022-08-12T20:29:26.623Z,62
2022-08-12T20:32:52.181Z,61
2022-08-12T20:36:40.477Z,60
2022-08-12T20:39:53.847Z,59
2022-08-12T20:43:07.894Z,61
2022-08-12T20:46:33.735Z,58
2022-08-12T20:49:59.913Z,57
2022-08-12T20:53:26.526Z,59
2022-08-12T20:56:49.006Z,59
2022-08-12T21:00:14.291Z,63
2022-08-12T21:03:39.565Z,67
2022-08-12T21:07:08.807Z,65
2022-08-12T21:10:30.084Z,61
2022-08-12T21:13:59.027Z,70
2022-08-12T21:17:20.602Z,67
2022-08-12T21:20:45.854Z,63
2022-08-12T21:24:11.131Z,65
2022-08-12T21:27:58.364Z,64
2022-08-12T21:31:11.900Z,62
2022-08-12T21:34:29.461Z,61
2022-08-12T21:37:52.969Z,62
2022-08-12T21:41:17.489Z,63
2022-08-12T21:45:43.652Z,64
2022-08-12T21:48:08.058Z,65
2022-08-12T21:51:35.320Z,62
2022-08-12T21:54:58.627Z,65
2022-08-12T21:58:23.912Z,69
2022-08-12T22:01:49.574Z,63
2022-08-12T22:05:14.483Z,67
2022-08-12T22:08:39.749Z,65
2022-08-12T22:12:05.060Z,64
2022-08-12T22:15:30.348Z,64
2022-08-12T22:18:55.626Z,65
2022-08-12T22:22:20.919Z,66
2022-08-12T22:25:46.223Z,68
2022-08-12T22:29:11.574Z,65
2022-08-12T22:32:36.867Z,70
2022-08-12T22:36:02.178Z,69
2022-08-12T22:39:27.594Z,68
2022-08-12T22:42:52.922Z,67
2022-08-12T22:46:18.261Z,66
2022-08-12T22:49:49.184Z,63
2022-08-12T22:53:08.954Z,67
2022-08-12T22:56:34.263Z,70
2022-08-12T22:59:59.588Z,66
2022-08-12T23:03:47.629Z,66
2022-08-12T23:06:50.204Z,70
2022-08-12T23:10:15.552Z,71
2022-08-12T23:13:43.003Z,70
2022-08-12T23:17:07.329Z,69
2022-08-12T23:20:31.616Z,66
2022-08-12T23:23:57.915Z,69
2022-08-12T23:27:22.271Z,66
2022-08-12T23:30:47.587Z,65
2022-08-12T23:34:12.899Z,65
2022-08-12T23:37:46.937Z,66
2022-08-12T23:41:03.874Z,68
2022-08-12T23:44:31.524Z,69
2022-08-12T23:47:54.223Z,69
2022-08-12T23:51:21.914Z,68
2022-08-12T23:54:44.860Z,70
2022-08-12T23:58:18.659Z,68
